createdAt,value
2019-01-31T00:01:12.179Z,8.28
2019-01-31T00:04:14.093Z,8.68
2019-01-31T00:07:15.422Z,10.98
2019-01-31T00:10:18.427Z,10.00
2019-01-31T00:13:20.382Z,10.45
2019-01-31T00:16:37.661Z,10.93
2019-01-31T00:19:22.524Z,9.38
2019-01-31T00:22:28.695Z,9.70
2019-01-31T00:25:32.306Z,10.20
2019-01-31T00:28:35.782Z,11.03
2019-01-31T00:31:55.142Z,11.20
2019-01-31T00:34:47.483Z,11.48
2019-01-31T00:38:00.870Z,10.65
2019-01-31T00:41:35.598Z,8.48
2019-01-31T00:44:30.290Z,8.03
2019-01-31T00:47:06.582Z,6.17
2019-01-31T00:50:00.185Z,5.97
2019-01-31T00:53:04.743Z,6.75
2019-01-31T00:56:13.576Z,7.40
2019-01-31T00:59:19.019Z,8.20
2019-01-31T01:02:02.763Z,7.67
2019-01-31T01:04:57.724Z,7.17
2019-01-31T01:07:48.882Z,6.60
2019-01-31T01:11:04.182Z,7.55
2019-01-31T01:14:08.180Z,6.75
2019-01-31T01:17:01.947Z,7.65
2019-01-31T01:20:14.803Z,7.75
2019-01-31T01:23:02.447Z,7.37
2019-01-31T01:26:12.585Z,7.83
2019-01-31T01:28:52.381Z,7.60
2019-01-31T01:32:10.903Z,7.37
2019-01-31T01:35:26.951Z,6.45
2019-01-31T01:38:22.886Z,6.45
2019-01-31T01:41:04.102Z,6.17
2019-01-31T01:44:20.497Z,6.50
2019-01-31T01:47:22.862Z,7.30
2019-01-31T01:49:55.858Z,8.48
2019-01-31T01:52:37.397Z,8.00
2019-01-31T01:55:15.231Z,8.28
2019-01-31T01:58:27.483Z,8.00
2019-01-31T02:01:25.588Z,7.65
2019-01-31T02:04:28.111Z,8.33
2019-01-31T02:07:41.184Z,7.12
2019-01-31T02:11:06.918Z,7.92
2019-01-31T02:14:21.145Z,8.18
2019-01-31T02:17:01.894Z,9.50
2019-01-31T02:20:12.434Z,9.83
2019-01-31T02:23:11.081Z,10.90
2019-01-31T02:26:02.722Z,11.83
2019-01-31T02:29:03.300Z,13.13
2019-01-31T02:31:52.045Z,16.55
2019-01-31T02:35:23.412Z,18.92
2019-01-31T02:38:10.789Z,17.40
2019-01-31T02:41:01.594Z,18.12
2019-01-31T02:43:49.191Z,19.42
2019-01-31T02:46:53.398Z,17.95
2019-01-31T02:49:45.782Z,15.10
2019-01-31T02:52:55.741Z,14.45
2019-01-31T02:56:02.861Z,15.18
2019-01-31T02:59:15.930Z,16.25
2019-01-31T03:02:18.546Z,16.75
2019-01-31T03:05:10.299Z,16.90
2019-01-31T03:08:32.684Z,15.68
2019-01-31T03:11:11.986Z,15.78
2019-01-31T03:14:10.049Z,15.43
2019-01-31T03:17:17.410Z,15.98
2019-01-31T03:20:20.611Z,15.30
2019-01-31T03:23:35.927Z,17.52
2019-01-31T03:26:36.798Z,18.57
2019-01-31T03:29:21.486Z,21.23
2019-01-31T03:32:37.901Z,23.52
2019-01-31T03:35:35.329Z,22.58
2019-01-31T03:38:31.159Z,22.30
2019-01-31T03:41:10.821Z,20.80
2019-01-31T03:44:27.576Z,19.80
2019-01-31T03:47:39.407Z,19.45
2019-01-31T03:50:22.668Z,19.52
2019-01-31T03:53:21.822Z,20.17
2019-01-31T03:56:04.241Z,21.55
2019-01-31T03:58:56.250Z,21.07
2019-01-31T04:02:05.424Z,19.45
2019-01-31T04:04:38.748Z,19.80
2019-01-31T04:07:07.490Z,18.92
2019-01-31T04:09:36.229Z,20.23
2019-01-31T04:12:05.006Z,20.45
2019-01-31T04:14:33.863Z,20.50
2019-01-31T04:17:02.692Z,21.80
2019-01-31T04:19:31.614Z,21.50
2019-01-31T04:22:00.419Z,21.48
2019-01-31T04:24:29.512Z,23.10
2019-01-31T04:26:58.346Z,22.60
2019-01-31T04:29:27.178Z,22.25
2019-01-31T04:31:56.029Z,23.22
2019-01-31T04:34:24.800Z,23.45
2019-01-31T04:36:53.709Z,22.60
2019-01-31T04:39:22.463Z,22.60
2019-01-31T04:41:51.232Z,23.27
2019-01-31T04:44:20.127Z,23.60
2019-01-31T04:46:49.012Z,22.40
2019-01-31T04:49:17.958Z,22.73
2019-01-31T04:51:46.728Z,23.27
2019-01-31T04:54:15.504Z,22.45
2019-01-31T04:56:46.256Z,22.67
2019-01-31T04:59:15.014Z,23.02
2019-01-31T05:01:44.648Z,22.22
2019-01-31T05:04:13.541Z,24.23
2019-01-31T05:06:42.411Z,22.13
2019-01-31T05:09:11.480Z,21.10
2019-01-31T05:11:40.357Z,23.15
2019-01-31T05:14:09.222Z,20.60
2019-01-31T05:16:38.073Z,19.90
2019-01-31T05:19:06.943Z,20.37
2019-01-31T05:21:35.794Z,18.75
2019-01-31T05:24:04.747Z,20.40
2019-01-31T05:26:33.599Z,18.52
2019-01-31T05:29:02.366Z,19.27
2019-01-31T05:31:31.186Z,17.45
2019-01-31T05:34:00.167Z,17.37
2019-01-31T05:36:28.976Z,16.17
2019-01-31T05:38:57.837Z,16.15
2019-01-31T05:41:26.702Z,16.20
2019-01-31T05:43:55.446Z,16.70
2019-01-31T05:46:24.207Z,15.60
2019-01-31T05:48:54.346Z,15.08
2019-01-31T05:51:23.102Z,16.27
2019-01-31T05:53:51.836Z,16.30
2019-01-31T05:56:20.778Z,17.05
2019-01-31T05:58:49.614Z,15.60
2019-01-31T06:01:18.710Z,15.90
2019-01-31T06:03:47.558Z,16.50
2019-01-31T06:06:16.389Z,16.07
2019-01-31T06:08:45.256Z,15.68
2019-01-31T06:11:13.977Z,17.50
2019-01-31T06:13:42.703Z,17.67
2019-01-31T06:16:11.537Z,17.90
2019-01-31T06:18:40.411Z,17.60
2019-01-31T06:21:09.134Z,17.92
2019-01-31T06:23:37.903Z,16.15
2019-01-31T06:26:06.715Z,18.30
2019-01-31T06:28:35.465Z,18.35
2019-01-31T06:31:04.195Z,17.77
2019-01-31T06:33:32.887Z,17.57
2019-01-31T06:36:01.715Z,17.00
2019-01-31T06:38:30.584Z,17.42
2019-01-31T06:40:59.286Z,16.35
2019-01-31T06:43:28.005Z,17.17
2019-01-31T06:45:56.763Z,16.45
2019-01-31T06:48:25.504Z,15.53
2019-01-31T06:50:54.302Z,15.40
2019-01-31T06:53:23.053Z,15.85
2019-01-31T06:55:51.789Z,16.87
2019-01-31T06:58:20.510Z,17.55
2019-01-31T07:00:49.381Z,18.48
2019-01-31T07:03:18.087Z,18.60
2019-01-31T07:05:47.063Z,18.62
2019-01-31T07:08:15.994Z,21.82
2019-01-31T07:10:44.811Z,20.95
2019-01-31T07:13:13.618Z,21.55
2019-01-31T07:15:42.404Z,20.65
2019-01-31T07:18:11.159Z,21.75
2019-01-31T07:20:40.125Z,22.70
2019-01-31T07:23:10.273Z,22.52
2019-01-31T07:25:39.109Z,25.25
2019-01-31T07:28:07.985Z,22.60
2019-01-31T07:30:36.749Z,22.65
2019-01-31T07:33:05.563Z,24.07
2019-01-31T07:35:34.295Z,25.17
2019-01-31T07:38:03.098Z,24.10
2019-01-31T07:40:31.902Z,24.32
2019-01-31T07:43:00.648Z,23.70
2019-01-31T07:45:30.711Z,23.10
2019-01-31T07:47:59.508Z,25.08
2019-01-31T07:50:28.210Z,24.77
2019-01-31T07:52:57.015Z,24.43
2019-01-31T07:55:25.781Z,25.75
2019-01-31T07:57:54.522Z,27.27
2019-01-31T08:00:23.454Z,29.30
2019-01-31T08:02:52.176Z,28.75
2019-01-31T08:05:21.471Z,30.48
2019-01-31T08:07:51.443Z,31.02
2019-01-31T08:10:22.807Z,36.90
2019-01-31T08:12:51.590Z,37.08
2019-01-31T08:15:20.350Z,42.33
2019-01-31T08:17:49.093Z,41.73
2019-01-31T08:20:17.938Z,41.83
2019-01-31T08:22:46.791Z,46.10
2019-01-31T08:25:17.574Z,56.15
2019-01-31T08:27:46.402Z,59.75
2019-01-31T08:30:18.014Z,65.03
2019-01-31T08:32:46.780Z,78.65
2019-01-31T08:35:15.598Z,82.78
2019-01-31T08:37:44.400Z,85.60
2019-01-31T08:40:13.189Z,77.12
2019-01-31T08:42:41.940Z,79.03
2019-01-31T08:45:11.665Z,76.60
2019-01-31T08:47:40.451Z,79.20
2019-01-31T08:50:13.914Z,74.20
2019-01-31T08:52:42.654Z,75.40
2019-01-31T08:55:11.448Z,73.57
2019-01-31T08:57:40.230Z,70.87
2019-01-31T09:00:12.880Z,66.45
2019-01-31T09:02:41.643Z,64.80
2019-01-31T09:05:10.463Z,73.00
2019-01-31T09:07:39.250Z,66.15
2019-01-31T09:10:11.154Z,71.82
2019-01-31T09:12:39.914Z,78.45
2019-01-31T09:15:09.461Z,68.45
2019-01-31T09:17:38.181Z,63.52
2019-01-31T09:20:09.378Z,67.30
2019-01-31T09:22:58.039Z,61.73
2019-01-31T09:26:16.812Z,68.45
2019-01-31T09:29:42.015Z,68.20
2019-01-31T09:32:44.494Z,68.78
2019-01-31T09:35:27.478Z,64.10
2019-01-31T09:38:37.634Z,63.80
2019-01-31T09:42:03.151Z,62.30
2019-01-31T09:45:04.939Z,58.83
2019-01-31T09:48:17.901Z,57.10
2019-01-31T09:51:30.961Z,55.55
2019-01-31T09:54:33.994Z,52.67
2019-01-31T09:57:27.290Z,52.73
2019-01-31T10:00:28.811Z,51.13
2019-01-31T10:03:37.918Z,48.78
2019-01-31T10:06:28.154Z,49.85
2019-01-31T10:09:21.470Z,47.73
2019-01-31T10:12:16.813Z,45.85
2019-01-31T10:15:29.919Z,50.90
2019-01-31T10:18:34.015Z,44.98
2019-01-31T10:21:44.135Z,40.78
2019-01-31T10:24:50.946Z,37.17
2019-01-31T10:27:54.488Z,37.28
2019-01-31T10:31:17.029Z,37.20
2019-01-31T10:34:27.814Z,31.48
2019-01-31T10:37:38.608Z,33.70
2019-01-31T10:40:48.400Z,34.27
2019-01-31T10:43:34.923Z,33.10
2019-01-31T10:46:54.026Z,33.95
2019-01-31T10:50:00.545Z,31.25
2019-01-31T10:52:42.846Z,33.78
2019-01-31T10:56:05.139Z,34.60
2019-01-31T10:59:00.398Z,33.92
2019-01-31T11:02:00.342Z,35.70
2019-01-31T11:05:31.978Z,37.03
2019-01-31T11:08:18.214Z,36.45
2019-01-31T11:11:05.159Z,35.78
2019-01-31T11:14:03.334Z,35.48
2019-01-31T11:17:05.004Z,31.70
2019-01-31T11:19:59.514Z,30.57
2019-01-31T11:23:28.235Z,28.23
2019-01-31T11:26:31.734Z,29.15
2019-01-31T11:29:40.016Z,29.82
2019-01-31T11:32:47.358Z,29.00
2019-01-31T11:36:02.446Z,28.40
2019-01-31T11:39:15.435Z,28.47
2019-01-31T11:42:18.914Z,29.10
2019-01-31T11:45:32.033Z,32.48
2019-01-31T11:48:28.674Z,36.83
2019-01-31T11:52:00.062Z,36.95
2019-01-31T11:55:05.279Z,38.23
2019-01-31T11:57:50.747Z,36.38
2019-01-31T12:00:22.058Z,36.25
2019-01-31T12:02:55.022Z,39.55
2019-01-31T12:05:21.645Z,41.65
2019-01-31T12:07:50.420Z,41.50
2019-01-31T12:10:19.154Z,42.20
2019-01-31T12:12:47.975Z,46.23
2019-01-31T12:15:16.739Z,47.10
2019-01-31T12:17:48.362Z,45.03
2019-01-31T12:20:17.127Z,45.30
2019-01-31T12:22:45.858Z,44.83
2019-01-31T12:25:14.609Z,48.50
2019-01-31T12:27:43.530Z,47.43
2019-01-31T12:30:18.878Z,45.75
2019-01-31T12:32:47.693Z,43.90
2019-01-31T12:35:16.531Z,38.55
2019-01-31T12:37:45.258Z,41.20
2019-01-31T12:40:15.355Z,40.58
2019-01-31T12:42:44.091Z,38.60
2019-01-31T12:45:14.838Z,37.60
2019-01-31T12:47:43.603Z,40.20
2019-01-31T12:50:15.238Z,38.92
2019-01-31T12:52:43.991Z,39.80
2019-01-31T12:55:12.755Z,38.50
2019-01-31T12:57:41.563Z,42.25
2019-01-31T13:00:20.571Z,40.00
2019-01-31T13:02:49.305Z,37.67
2019-01-31T13:05:18.152Z,37.60
2019-01-31T13:07:47.012Z,37.05
2019-01-31T13:10:15.868Z,38.65
2019-01-31T13:12:48.964Z,35.30
2019-01-31T13:15:15.433Z,38.60
2019-01-31T13:17:44.238Z,37.48
2019-01-31T13:20:16.054Z,37.67
2019-01-31T13:22:44.801Z,36.42
2019-01-31T13:25:14.042Z,37.30
2019-01-31T13:27:42.906Z,37.05
2019-01-31T13:30:14.536Z,38.17
2019-01-31T13:32:43.462Z,39.50
2019-01-31T13:35:12.362Z,37.38
2019-01-31T13:37:41.255Z,36.60
2019-01-31T13:40:13.128Z,35.55
2019-01-31T13:42:41.877Z,35.60
2019-01-31T13:45:11.781Z,34.92
2019-01-31T13:47:40.695Z,32.98
2019-01-31T13:50:10.837Z,35.17
2019-01-31T13:52:39.602Z,34.95
2019-01-31T13:55:18.569Z,35.48
2019-01-31T13:57:46.295Z,34.30
2019-01-31T14:00:15.731Z,33.92
2019-01-31T14:02:44.470Z,34.35
2019-01-31T14:05:13.290Z,33.08
2019-01-31T14:07:42.022Z,33.05
2019-01-31T14:10:13.189Z,31.23
2019-01-31T14:12:42.020Z,34.83
2019-01-31T14:15:11.512Z,31.80
2019-01-31T14:17:40.319Z,30.27
2019-01-31T14:20:11.842Z,32.13
2019-01-31T14:22:42.991Z,28.50
2019-01-31T14:25:11.128Z,29.20
2019-01-31T14:27:39.917Z,28.07
2019-01-31T14:30:14.198Z,29.25
2019-01-31T14:32:43.574Z,28.17
2019-01-31T14:35:12.398Z,25.88
2019-01-31T14:37:41.290Z,26.45
2019-01-31T14:40:10.526Z,23.60
2019-01-31T14:42:39.566Z,24.32
2019-01-31T14:45:09.145Z,23.80
2019-01-31T14:47:37.970Z,26.05
2019-01-31T14:50:08.798Z,23.98
2019-01-31T14:52:37.716Z,24.00
2019-01-31T14:55:07.477Z,23.65
2019-01-31T14:57:36.306Z,21.40
2019-01-31T15:00:07.292Z,21.17
2019-01-31T15:02:36.208Z,22.02
2019-01-31T15:05:07.463Z,21.15
2019-01-31T15:07:36.226Z,22.20
2019-01-31T15:10:07.290Z,23.73
2019-01-31T15:12:36.038Z,24.47
2019-01-31T15:15:05.914Z,22.73
2019-01-31T15:17:36.050Z,25.15
2019-01-31T15:20:10.470Z,25.90
2019-01-31T15:22:39.459Z,28.00
2019-01-31T15:25:08.487Z,27.17
2019-01-31T15:27:37.305Z,28.15
2019-01-31T15:30:08.143Z,25.62
2019-01-31T15:32:36.883Z,28.38
2019-01-31T15:35:06.099Z,26.48
2019-01-31T15:37:34.923Z,28.25
2019-01-31T15:40:04.241Z,27.48
2019-01-31T15:42:32.999Z,28.23
2019-01-31T15:45:01.752Z,28.17
2019-01-31T15:47:31.378Z,28.40
2019-01-31T15:50:00.196Z,29.25
2019-01-31T15:52:28.976Z,29.77
2019-01-31T15:54:57.751Z,28.23
2019-01-31T15:57:26.655Z,32.28
2019-01-31T15:59:55.490Z,30.65
2019-01-31T16:02:24.321Z,32.83
2019-01-31T16:04:53.075Z,31.60
2019-01-31T16:07:21.852Z,31.65
2019-01-31T16:09:50.627Z,33.50
2019-01-31T16:12:19.351Z,33.30
2019-01-31T16:14:54.561Z,30.23
2019-01-31T16:17:18.789Z,27.98
2019-01-31T16:19:47.642Z,26.68
2019-01-31T16:22:16.622Z,24.45
2019-01-31T16:24:45.451Z,24.90
2019-01-31T16:27:14.254Z,26.65
2019-01-31T16:29:43.038Z,24.77
2019-01-31T16:32:13.700Z,23.02
2019-01-31T16:34:42.446Z,24.10
2019-01-31T16:37:11.323Z,25.17
2019-01-31T16:39:40.098Z,24.10
2019-01-31T16:42:08.845Z,25.23
2019-01-31T16:44:37.627Z,25.68
2019-01-31T16:47:06.448Z,25.72
2019-01-31T16:49:35.267Z,25.82
2019-01-31T16:52:05.825Z,25.50
2019-01-31T16:54:35.654Z,23.12
2019-01-31T16:57:04.603Z,25.12
2019-01-31T16:59:34.243Z,25.65
2019-01-31T17:02:06.847Z,26.27
2019-01-31T17:04:37.565Z,26.62
2019-01-31T17:07:08.504Z,27.85
2019-01-31T17:09:39.455Z,25.95
2019-01-31T17:12:12.582Z,26.60
2019-01-31T17:14:41.410Z,28.20
2019-01-31T17:17:11.076Z,29.85
2019-01-31T17:19:39.826Z,26.68
2019-01-31T17:22:09.498Z,28.60
2019-01-31T17:24:40.061Z,28.80
2019-01-31T17:27:11.362Z,31.40
2019-01-31T17:29:41.582Z,31.25
2019-01-31T17:32:13.089Z,31.82
2019-01-31T17:34:43.599Z,32.50
2019-01-31T17:37:14.019Z,34.85
2019-01-31T17:39:44.599Z,33.38
2019-01-31T17:42:15.213Z,33.23
2019-01-31T17:44:45.895Z,32.65
2019-01-31T17:47:16.275Z,33.50
2019-01-31T17:49:48.461Z,33.08
2019-01-31T17:52:18.320Z,34.23
2019-01-31T17:54:48.329Z,32.10
2019-01-31T17:57:18.671Z,31.25
2019-01-31T17:59:47.604Z,33.75
2019-01-31T18:02:16.546Z,32.13
2019-01-31T18:04:45.290Z,33.13
2019-01-31T18:07:14.121Z,31.80
2019-01-31T18:09:42.942Z,32.35
2019-01-31T18:12:14.166Z,30.97
2019-01-31T18:14:42.915Z,32.10
2019-01-31T18:17:14.802Z,32.70
2019-01-31T18:19:44.548Z,30.65
2019-01-31T18:22:13.396Z,32.45
2019-01-31T18:24:42.221Z,31.60
2019-01-31T18:27:12.546Z,32.17
2019-01-31T18:29:41.390Z,31.93
2019-01-31T18:32:10.106Z,28.80
2019-01-31T18:34:38.981Z,32.20
2019-01-31T18:37:10.942Z,30.75
2019-01-31T18:39:39.812Z,33.33
2019-01-31T18:42:08.546Z,33.65
2019-01-31T18:44:40.254Z,30.08
2019-01-31T18:47:09.020Z,31.20
2019-01-31T18:49:37.844Z,31.25
2019-01-31T18:52:06.582Z,30.85
2019-01-31T18:54:35.410Z,32.53
2019-01-31T18:57:04.200Z,31.57
2019-01-31T18:59:32.914Z,31.60
2019-01-31T19:02:01.777Z,31.48
2019-01-31T19:04:30.531Z,31.62
2019-01-31T19:06:59.422Z,32.38
2019-01-31T19:09:29.570Z,32.15
2019-01-31T19:11:58.375Z,32.50
2019-01-31T19:14:27.308Z,33.35
2019-01-31T19:16:56.098Z,33.58
2019-01-31T19:19:25.115Z,32.25
2019-01-31T19:21:53.873Z,29.48
2019-01-31T19:24:22.667Z,29.27
2019-01-31T19:26:51.522Z,33.08
2019-01-31T19:29:21.741Z,31.75
2019-01-31T19:31:50.520Z,32.35
2019-01-31T19:34:19.260Z,33.73
2019-01-31T19:36:48.011Z,33.30
2019-01-31T19:39:18.372Z,29.75
2019-01-31T19:41:47.293Z,31.05
2019-01-31T19:44:16.030Z,27.90
2019-01-31T19:46:44.846Z,29.65
2019-01-31T19:49:13.618Z,30.20
2019-01-31T19:51:43.595Z,31.48
2019-01-31T19:54:13.673Z,34.00
2019-01-31T19:56:42.603Z,33.40
2019-01-31T19:59:14.260Z,31.95
2019-01-31T20:01:43.099Z,29.52
2019-01-31T20:04:11.852Z,30.23
2019-01-31T20:06:46.266Z,28.38
2019-01-31T20:09:24.788Z,31.52
2019-01-31T20:11:53.572Z,29.10
2019-01-31T20:14:22.342Z,31.37
2019-01-31T20:16:51.081Z,30.70
2019-01-31T20:19:19.869Z,30.52
2019-01-31T20:21:48.706Z,30.37
2019-01-31T20:24:17.556Z,28.57
2019-01-31T20:26:47.235Z,29.77
2019-01-31T20:29:16.144Z,29.32
2019-01-31T20:31:44.962Z,29.87
2019-01-31T20:34:13.694Z,31.37
2019-01-31T20:36:42.439Z,29.70
2019-01-31T20:39:12.754Z,30.92
2019-01-31T20:41:41.547Z,28.85
2019-01-31T20:44:10.311Z,29.55
2019-01-31T20:46:40.407Z,28.57
2019-01-31T20:49:09.463Z,30.37
2019-01-31T20:51:38.311Z,30.48
2019-01-31T20:54:07.158Z,29.70
2019-01-31T20:56:36.052Z,31.70
2019-01-31T20:59:04.869Z,31.97
2019-01-31T21:01:33.639Z,34.33
2019-01-31T21:04:02.675Z,33.53
2019-01-31T21:06:41.196Z,36.60
2019-01-31T21:09:02.016Z,37.93
2019-01-31T21:11:30.729Z,39.03
2019-01-31T21:13:59.490Z,37.65
2019-01-31T21:16:28.361Z,39.95
2019-01-31T21:18:57.174Z,36.30
2019-01-31T21:21:26.015Z,37.15
2019-01-31T21:23:56.351Z,38.53
2019-01-31T21:26:26.752Z,39.03
2019-01-31T21:28:55.802Z,39.85
2019-01-31T21:31:24.644Z,39.90
2019-01-31T21:33:53.386Z,40.00
2019-01-31T21:36:22.191Z,41.77
2019-01-31T21:38:51.054Z,44.42
2019-01-31T21:41:19.914Z,44.93
2019-01-31T21:43:48.800Z,43.78
2019-01-31T21:46:18.478Z,46.02
2019-01-31T21:48:47.321Z,46.75
2019-01-31T21:51:16.072Z,45.20
2019-01-31T21:53:44.870Z,46.45
2019-01-31T21:56:13.661Z,48.10
2019-01-31T21:58:42.410Z,48.55
2019-01-31T22:01:11.175Z,47.58
2019-01-31T22:03:39.925Z,51.42
2019-01-31T22:06:08.690Z,49.23
2019-01-31T22:08:37.434Z,47.65
2019-01-31T22:11:06.163Z,47.88
2019-01-31T22:13:34.906Z,44.30
2019-01-31T22:16:03.638Z,45.92
2019-01-31T22:18:32.414Z,47.10
2019-01-31T22:21:01.499Z,45.58
2019-01-31T22:23:31.773Z,47.50
2019-01-31T22:26:01.407Z,46.73
2019-01-31T22:28:31.730Z,47.88
2019-01-31T22:31:00.469Z,45.98
2019-01-31T22:33:29.326Z,45.80
2019-01-31T22:35:58.599Z,42.90
2019-01-31T22:38:27.441Z,43.78
2019-01-31T22:40:56.155Z,43.70
2019-01-31T22:43:24.913Z,43.63
2019-01-31T22:45:53.649Z,44.90
2019-01-31T22:48:22.451Z,42.78
2019-01-31T22:50:51.454Z,42.53
2019-01-31T22:53:20.177Z,42.80
2019-01-31T22:55:48.902Z,44.27
2019-01-31T22:58:17.645Z,41.55
2019-01-31T23:01:21.986Z,41.50
2019-01-31T23:03:50.782Z,41.53
2019-01-31T23:06:19.559Z,45.65
2019-01-31T23:08:48.450Z,43.45
2019-01-31T23:11:17.179Z,41.92
2019-01-31T23:13:46.010Z,42.55
2019-01-31T23:16:15.091Z,49.23
2019-01-31T23:18:43.833Z,42.95
2019-01-31T23:21:12.578Z,40.90
2019-01-31T23:23:41.366Z,43.10
2019-01-31T23:26:10.180Z,41.95
2019-01-31T23:28:38.909Z,40.58
2019-01-31T23:31:07.825Z,43.87
2019-01-31T23:33:36.766Z,38.38
2019-01-31T23:36:05.711Z,41.37
2019-01-31T23:38:34.463Z,39.33
2019-01-31T23:41:03.281Z,40.12
2019-01-31T23:43:36.105Z,40.80
2019-01-31T23:46:04.991Z,38.80
2019-01-31T23:48:33.711Z,40.70
2019-01-31T23:51:02.713Z,38.25
2019-01-31T23:53:31.476Z,37.38
2019-01-31T23:56:00.230Z,37.98
2019-01-31T23:58:29.753Z,39.38
